sensor_id;sensor_type;location;lat;lon;timestamp;temperature;humidity
68251;DHT22;55066;51.560;4.642;2022-09-20T00:00:49;11.95;84.52
68251;DHT22;55066;51.560;4.642;2022-09-20T00:03:16;11.98;84.37
68251;DHT22;55066;51.560;4.642;2022-09-20T00:05:44;11.95;84.62
68251;DHT22;55066;51.560;4.642;2022-09-20T00:08:14;11.86;89.58
68251;DHT22;55066;51.560;4.642;2022-09-20T00:10:40;11.77;91.19
68251;DHT22;55066;51.560;4.642;2022-09-20T00:13:07;11.75;89.45
68251;DHT22;55066;51.560;4.642;2022-09-20T00:15:33;11.75;87.07
68251;DHT22;55066;51.560;4.642;2022-09-20T00:17:59;11.81;93.07
68251;DHT22;55066;51.560;4.642;2022-09-20T00:20:24;11.78;88.27
68251;DHT22;55066;51.560;4.642;2022-09-20T00:22:50;11.90;85.91
68251;DHT22;55066;51.560;4.642;2022-09-20T00:25:17;11.99;85.81
68251;DHT22;55066;51.560;4.642;2022-09-20T00:27:43;12.02;86.36
68251;DHT22;55066;51.560;4.642;2022-09-20T00:30:11;12.09;84.60
68251;DHT22;55066;51.560;4.642;2022-09-20T00:32:37;12.24;83.65
68251;DHT22;55066;51.560;4.642;2022-09-20T00:35:02;12.22;84.80
68251;DHT22;55066;51.560;4.642;2022-09-20T00:37:40;12.17;86.22
68251;DHT22;55066;51.560;4.642;2022-09-20T00:40:15;12.12;87.11
68251;DHT22;55066;51.560;4.642;2022-09-20T00:42:40;12.10;87.78
68251;DHT22;55066;51.560;4.642;2022-09-20T00:45:19;12.20;85.86
68251;DHT22;55066;51.560;4.642;2022-09-20T00:48:04;12.24;84.72
68251;DHT22;55066;51.560;4.642;2022-09-20T00:50:41;12.20;85.62
68251;DHT22;55066;51.560;4.642;2022-09-20T00:53:20;12.10;84.60
68251;DHT22;55066;51.560;4.642;2022-09-20T00:55:56;12.06;86.46
68251;DHT22;55066;51.560;4.642;2022-09-20T00:58:25;12.19;94.19
68251;DHT22;55066;51.560;4.642;2022-09-20T01:00:52;12.03;94.35
68251;DHT22;55066;51.560;4.642;2022-09-20T01:03:19;11.99;95.39
68251;DHT22;55066;51.560;4.642;2022-09-20T01:05:51;11.98;94.13
68251;DHT22;55066;51.560;4.642;2022-09-20T01:08:17;12.03;94.54
68251;DHT22;55066;51.560;4.642;2022-09-20T01:10:43;12.00;94.13
68251;DHT22;55066;51.560;4.642;2022-09-20T01:13:08;11.95;92.52
68251;DHT22;55066;51.560;4.642;2022-09-20T01:15:35;11.96;93.76
68251;DHT22;55066;51.560;4.642;2022-09-20T01:18:02;11.89;91.76
68251;DHT22;55066;51.560;4.642;2022-09-20T01:20:33;11.83;93.53
68251;DHT22;55066;51.560;4.642;2022-09-20T01:28:25;11.88;86.41
68251;DHT22;55066;51.560;4.642;2022-09-20T01:31:16;11.92;86.03
68251;DHT22;55066;51.560;4.642;2022-09-20T01:39:11;11.85;85.53
68251;DHT22;55066;51.560;4.642;2022-09-20T01:41:54;11.81;86.33
68251;DHT22;55066;51.560;4.642;2022-09-20T01:47:37;11.52;85.48
68251;DHT22;55066;51.560;4.642;2022-09-20T01:50:33;11.50;86.00
68251;DHT22;55066;51.560;4.642;2022-09-20T01:53:10;11.51;86.45
68251;DHT22;55066;51.560;4.642;2022-09-20T02:07:05;11.85;85.30
68251;DHT22;55066;51.560;4.642;2022-09-20T02:15:43;12.07;84.27
68251;DHT22;55066;51.560;4.642;2022-09-20T02:18:30;12.07;86.62
68251;DHT22;55066;51.560;4.642;2022-09-20T02:35:15;11.79;88.87
68251;DHT22;55066;51.560;4.642;2022-09-20T02:37:59;11.82;90.92
68251;DHT22;55066;51.560;4.642;2022-09-20T02:40:55;11.71;87.64
68251;DHT22;55066;51.560;4.642;2022-09-20T02:46:02;11.69;87.54
68251;DHT22;55066;51.560;4.642;2022-09-20T02:48:44;11.45;87.01
68251;DHT22;55066;51.560;4.642;2022-09-20T02:51:27;11.35;90.20
68251;DHT22;55066;51.560;4.642;2022-09-20T02:56:42;11.16;86.01
68251;DHT22;55066;51.560;4.642;2022-09-20T03:02:14;10.93;87.28
68251;DHT22;55066;51.560;4.642;2022-09-20T03:10:01;10.71;87.55
68251;DHT22;55066;51.560;4.642;2022-09-20T03:18:52;10.86;86.66
68251;DHT22;55066;51.560;4.642;2022-09-20T03:24:09;10.78;86.83
68251;DHT22;55066;51.560;4.642;2022-09-20T03:29:28;10.66;86.88
68251;DHT22;55066;51.560;4.642;2022-09-20T03:35:35;10.51;87.31
68251;DHT22;55066;51.560;4.642;2022-09-20T03:38:52;10.54;87.02
68251;DHT22;55066;51.560;4.642;2022-09-20T03:46:27;10.51;88.59
68251;DHT22;55066;51.560;4.642;2022-09-20T03:52:19;10.41;86.84
68251;DHT22;55066;51.560;4.642;2022-09-20T03:55:18;10.47;86.84
68251;DHT22;55066;51.560;4.642;2022-09-20T04:01:00;10.54;86.44
68251;DHT22;55066;51.560;4.642;2022-09-20T04:03:37;10.58;86.27
68251;DHT22;55066;51.560;4.642;2022-09-20T04:06:26;10.57;85.89
68251;DHT22;55066;51.560;4.642;2022-09-20T04:12:04;10.64;85.86
68251;DHT22;55066;51.560;4.642;2022-09-20T04:14:53;10.52;88.74
68251;DHT22;55066;51.560;4.642;2022-09-20T04:17:48;10.51;86.06
68251;DHT22;55066;51.560;4.642;2022-09-20T04:20:45;10.69;86.04
68251;DHT22;55066;51.560;4.642;2022-09-20T04:23:29;10.80;84.97
68251;DHT22;55066;51.560;4.642;2022-09-20T04:25:56;10.80;86.11
68251;DHT22;55066;51.560;4.642;2022-09-20T04:33:41;10.85;86.61
68251;DHT22;55066;51.560;4.642;2022-09-20T04:36:29;10.82;88.47
68251;DHT22;55066;51.560;4.642;2022-09-20T04:39:03;10.76;85.64
68251;DHT22;55066;51.560;4.642;2022-09-20T04:47:27;10.83;88.64
68251;DHT22;55066;51.560;4.642;2022-09-20T04:55:53;10.95;86.07
68251;DHT22;55066;51.560;4.642;2022-09-20T04:58:43;10.96;84.87
68251;DHT22;55066;51.560;4.642;2022-09-20T05:04:07;11.22;86.53
68251;DHT22;55066;51.560;4.642;2022-09-20T05:07:11;11.24;86.79
68251;DHT22;55066;51.560;4.642;2022-09-20T05:09:51;11.33;84.14
68251;DHT22;55066;51.560;4.642;2022-09-20T05:15:22;11.41;91.05
68251;DHT22;55066;51.560;4.642;2022-09-20T05:21:04;11.24;93.13
68251;DHT22;55066;51.560;4.642;2022-09-20T05:23:51;11.12;88.71
68251;DHT22;55066;51.560;4.642;2022-09-20T05:26:47;11.10;86.43
68251;DHT22;55066;51.560;4.642;2022-09-20T05:29:24;11.13;88.36
68251;DHT22;55066;51.560;4.642;2022-09-20T05:32:16;11.17;89.33
68251;DHT22;55066;51.560;4.642;2022-09-20T05:34:49;11.27;93.78
68251;DHT22;55066;51.560;4.642;2022-09-20T05:37:38;11.28;94.53
68251;DHT22;55066;51.560;4.642;2022-09-20T05:43:01;11.42;90.95
68251;DHT22;55066;51.560;4.642;2022-09-20T05:48:51;11.48;93.20
68251;DHT22;55066;51.560;4.642;2022-09-20T05:51:46;11.42;91.62
68251;DHT22;55066;51.560;4.642;2022-09-20T05:57:15;11.55;91.88
68251;DHT22;55066;51.560;4.642;2022-09-20T06:00:07;11.57;95.69
68251;DHT22;55066;51.560;4.642;2022-09-20T06:08:17;11.57;90.66
68251;DHT22;55066;51.560;4.642;2022-09-20T06:10:53;11.71;91.52
68251;DHT22;55066;51.560;4.642;2022-09-20T06:13:54;11.79;94.83
68251;DHT22;55066;51.560;4.642;2022-09-20T06:16:18;11.81;94.78
68251;DHT22;55066;51.560;4.642;2022-09-20T06:21:45;11.89;94.94
68251;DHT22;55066;51.560;4.642;2022-09-20T06:27:01;11.95;93.50
68251;DHT22;55066;51.560;4.642;2022-09-20T06:29:32;12.06;93.74
68251;DHT22;55066;51.560;4.642;2022-09-20T06:31:58;12.15;92.61
68251;DHT22;55066;51.560;4.642;2022-09-20T06:34:24;12.26;94.87
68251;DHT22;55066;51.560;4.642;2022-09-20T06:37:09;12.34;93.66
68251;DHT22;55066;51.560;4.642;2022-09-20T06:40:05;12.50;91.46
68251;DHT22;55066;51.560;4.642;2022-09-20T06:42:56;12.69;91.13
68251;DHT22;55066;51.560;4.642;2022-09-20T06:45:24;12.69;93.44
68251;DHT22;55066;51.560;4.642;2022-09-20T06:47:49;12.50;91.28
68251;DHT22;55066;51.560;4.642;2022-09-20T06:50:15;12.44;94.73
68251;DHT22;55066;51.560;4.642;2022-09-20T06:52:41;12.33;95.33
68251;DHT22;55066;51.560;4.642;2022-09-20T06:55:20;12.17;95.51
68251;DHT22;55066;51.560;4.642;2022-09-20T06:57:46;12.07;95.81
68251;DHT22;55066;51.560;4.642;2022-09-20T07:00:13;11.96;95.89
68251;DHT22;55066;51.560;4.642;2022-09-20T07:02:40;11.79;91.41
68251;DHT22;55066;51.560;4.642;2022-09-20T07:05:14;11.88;95.04
68251;DHT22;55066;51.560;4.642;2022-09-20T07:07:40;11.83;95.62
68251;DHT22;55066;51.560;4.642;2022-09-20T07:10:05;11.82;95.12
68251;DHT22;55066;51.560;4.642;2022-09-20T07:12:30;11.77;94.68
68251;DHT22;55066;51.560;4.642;2022-09-20T07:14:58;11.93;94.54
68251;DHT22;55066;51.560;4.642;2022-09-20T07:17:24;12.03;94.95
68251;DHT22;55066;51.560;4.642;2022-09-20T07:19:49;12.16;95.39
68251;DHT22;55066;51.560;4.642;2022-09-20T07:22:15;12.37;94.92
68251;DHT22;55066;51.560;4.642;2022-09-20T07:24:41;12.54;93.57
68251;DHT22;55066;51.560;4.642;2022-09-20T07:27:06;12.81;89.62
68251;DHT22;55066;51.560;4.642;2022-09-20T07:29:32;13.24;92.84
68251;DHT22;55066;51.560;4.642;2022-09-20T07:31:59;13.73;91.47
68251;DHT22;55066;51.560;4.642;2022-09-20T07:34:25;13.78;91.39
68251;DHT22;55066;51.560;4.642;2022-09-20T07:36:51;13.94;91.38
68251;DHT22;55066;51.560;4.642;2022-09-20T07:39:17;13.89;90.22
68251;DHT22;55066;51.560;4.642;2022-09-20T07:41:42;13.94;90.42
68251;DHT22;55066;51.560;4.642;2022-09-20T07:44:13;13.77;90.28
68251;DHT22;55066;51.560;4.642;2022-09-20T07:46:57;14.05;89.03
68251;DHT22;55066;51.560;4.642;2022-09-20T07:49:24;14.44;88.21
68251;DHT22;55066;51.560;4.642;2022-09-20T07:51:51;14.77;88.53
68251;DHT22;55066;51.560;4.642;2022-09-20T07:54:17;14.66;87.95
68251;DHT22;55066;51.560;4.642;2022-09-20T07:56:43;14.73;88.49
68251;DHT22;55066;51.560;4.642;2022-09-20T07:59:09;14.94;85.59
68251;DHT22;55066;51.560;4.642;2022-09-20T08:01:35;15.05;87.60
68251;DHT22;55066;51.560;4.642;2022-09-20T08:04:01;15.08;86.48
68251;DHT22;55066;51.560;4.642;2022-09-20T08:06:28;15.43;86.68
68251;DHT22;55066;51.560;4.642;2022-09-20T08:08:54;15.57;87.56
68251;DHT22;55066;51.560;4.642;2022-09-20T08:11:21;16.02;83.80
68251;DHT22;55066;51.560;4.642;2022-09-20T08:13:52;15.90;86.87
68251;DHT22;55066;51.560;4.642;2022-09-20T08:16:18;15.93;84.75
68251;DHT22;55066;51.560;4.642;2022-09-20T08:18:48;16.19;83.69
68251;DHT22;55066;51.560;4.642;2022-09-20T08:21:14;15.88;82.64
68251;DHT22;55066;51.560;4.642;2022-09-20T08:23:42;15.78;82.41
68251;DHT22;55066;51.560;4.642;2022-09-20T08:26:10;15.74;84.07
68251;DHT22;55066;51.560;4.642;2022-09-20T08:28:39;15.97;83.86
68251;DHT22;55066;51.560;4.642;2022-09-20T08:31:10;15.88;84.01
68251;DHT22;55066;51.560;4.642;2022-09-20T08:33:39;15.77;84.71
68251;DHT22;55066;51.560;4.642;2022-09-20T08:36:11;16.12;84.14
68251;DHT22;55066;51.560;4.642;2022-09-20T08:38:37;16.05;83.84
68251;DHT22;55066;51.560;4.642;2022-09-20T08:41:09;16.02;83.86
68251;DHT22;55066;51.560;4.642;2022-09-20T08:43:39;15.94;84.23
68251;DHT22;55066;51.560;4.642;2022-09-20T08:46:08;15.98;84.03
68251;DHT22;55066;51.560;4.642;2022-09-20T08:48:36;15.96;82.42
68251;DHT22;55066;51.560;4.642;2022-09-20T08:51:02;15.59;84.98
68251;DHT22;55066;51.560;4.642;2022-09-20T08:53:31;15.31;84.12
68251;DHT22;55066;51.560;4.642;2022-09-20T08:55:57;15.12;86.06
68251;DHT22;55066;51.560;4.642;2022-09-20T08:58:24;15.19;84.51
68251;DHT22;55066;51.560;4.642;2022-09-20T09:00:50;15.46;84.99
68251;DHT22;55066;51.560;4.642;2022-09-20T09:03:17;15.43;83.30
68251;DHT22;55066;51.560;4.642;2022-09-20T09:05:50;15.49;85.04
68251;DHT22;55066;51.560;4.642;2022-09-20T09:08:28;15.54;83.16
68251;DHT22;55066;51.560;4.642;2022-09-20T09:11:04;15.54;82.81
68251;DHT22;55066;51.560;4.642;2022-09-20T09:13:38;15.64;83.91
68251;DHT22;55066;51.560;4.642;2022-09-20T09:16:11;15.74;83.02
68251;DHT22;55066;51.560;4.642;2022-09-20T09:18:41;15.71;85.06
68251;DHT22;55066;51.560;4.642;2022-09-20T09:21:08;15.84;85.38
68251;DHT22;55066;51.560;4.642;2022-09-20T09:26:20;16.21;81.27
68251;DHT22;55066;51.560;4.642;2022-09-20T09:29:01;16.39;81.70
68251;DHT22;55066;51.560;4.642;2022-09-20T09:31:31;16.21;82.60
68251;DHT22;55066;51.560;4.642;2022-09-20T09:33:57;16.42;83.05
68251;DHT22;55066;51.560;4.642;2022-09-20T09:36:24;16.74;81.98
68251;DHT22;55066;51.560;4.642;2022-09-20T09:39:12;17.10;81.81
68251;DHT22;55066;51.560;4.642;2022-09-20T09:41:37;17.83;80.53
68251;DHT22;55066;51.560;4.642;2022-09-20T09:46:45;18.15;78.97
68251;DHT22;55066;51.560;4.642;2022-09-20T09:51:58;18.15;80.66
68251;DHT22;55066;51.560;4.642;2022-09-20T09:54:30;18.27;80.91
68251;DHT22;55066;51.560;4.642;2022-09-20T10:19:49;17.56;79.40
68251;DHT22;55066;51.560;4.642;2022-09-20T10:22:45;17.65;83.06
68251;DHT22;55066;51.560;4.642;2022-09-20T10:31:09;19.20;76.11
68251;DHT22;55066;51.560;4.642;2022-09-20T10:33:57;19.82;77.65
68251;DHT22;55066;51.560;4.642;2022-09-20T10:36:53;19.68;72.52
68251;DHT22;55066;51.560;4.642;2022-09-20T10:39:35;19.65;78.59
68251;DHT22;55066;51.560;4.642;2022-09-20T10:45:21;18.32;77.40
68251;DHT22;55066;51.560;4.642;2022-09-20T10:48:08;17.57;78.32
68251;DHT22;55066;51.560;4.642;2022-09-20T10:50:44;17.53;81.61
68251;DHT22;55066;51.560;4.642;2022-09-20T11:02:11;17.61;82.22
68251;DHT22;55066;51.560;4.642;2022-09-20T11:10:00;17.79;78.68
68251;DHT22;55066;51.560;4.642;2022-09-20T11:12:36;17.55;81.06
68251;DHT22;55066;51.560;4.642;2022-09-20T11:15:23;17.31;82.62
68251;DHT22;55066;51.560;4.642;2022-09-20T11:20:41;17.72;79.42
68251;DHT22;55066;51.560;4.642;2022-09-20T11:23:16;17.70;79.73
68251;DHT22;55066;51.560;4.642;2022-09-20T11:25:59;17.91;78.22
68251;DHT22;55066;51.560;4.642;2022-09-20T11:28:36;17.94;76.48
68251;DHT22;55066;51.560;4.642;2022-09-20T11:31:26;17.76;78.57
68251;DHT22;55066;51.560;4.642;2022-09-20T11:34:02;17.62;78.25
68251;DHT22;55066;51.560;4.642;2022-09-20T11:36:37;18.14;77.72
68251;DHT22;55066;51.560;4.642;2022-09-20T11:39:16;18.31;76.74
68251;DHT22;55066;51.560;4.642;2022-09-20T11:41:44;18.08;77.00
68251;DHT22;55066;51.560;4.642;2022-09-20T11:44:14;18.25;76.48
68251;DHT22;55066;51.560;4.642;2022-09-20T11:46:48;18.51;76.25
68251;DHT22;55066;51.560;4.642;2022-09-20T11:49:23;18.37;76.26
68251;DHT22;55066;51.560;4.642;2022-09-20T11:54:41;18.13;76.32
68251;DHT22;55066;51.560;4.642;2022-09-20T11:57:13;19.25;71.36
68251;DHT22;55066;51.560;4.642;2022-09-20T11:59:42;20.21;71.30
68251;DHT22;55066;51.560;4.642;2022-09-20T12:05:38;19.48;72.62
68251;DHT22;55066;51.560;4.642;2022-09-20T12:08:18;19.34;72.85
68251;DHT22;55066;51.560;4.642;2022-09-20T12:11:01;19.03;73.85
68251;DHT22;55066;51.560;4.642;2022-09-20T12:13:29;18.75;76.36
68251;DHT22;55066;51.560;4.642;2022-09-20T12:21:04;18.44;77.35
68251;DHT22;55066;51.560;4.642;2022-09-20T12:26:06;18.39;75.55
68251;DHT22;55066;51.560;4.642;2022-09-20T12:28:41;18.48;76.57
68251;DHT22;55066;51.560;4.642;2022-09-20T12:36:25;17.72;76.42
68251;DHT22;55066;51.560;4.642;2022-09-20T12:39:12;17.04;73.94
68251;DHT22;55066;51.560;4.642;2022-09-20T12:41:49;15.78;76.75
68251;DHT22;55066;51.560;4.642;2022-09-20T12:44:37;15.40;77.47
68251;DHT22;55066;51.560;4.642;2022-09-20T12:47:06;15.18;81.02
68251;DHT22;55066;51.560;4.642;2022-09-20T12:57:56;15.38;81.90
68251;DHT22;55066;51.560;4.642;2022-09-20T13:00:35;15.66;83.06
68251;DHT22;55066;51.560;4.642;2022-09-20T13:05:49;16.11;81.07
68251;DHT22;55066;51.560;4.642;2022-09-20T13:08:21;15.91;81.34
68251;DHT22;55066;51.560;4.642;2022-09-20T13:10:51;15.78;81.45
68251;DHT22;55066;51.560;4.642;2022-09-20T13:13:27;16.25;80.19
68251;DHT22;55066;51.560;4.642;2022-09-20T13:15:54;16.45;79.09
68251;DHT22;55066;51.560;4.642;2022-09-20T13:18:20;16.77;79.27
68251;DHT22;55066;51.560;4.642;2022-09-20T13:20:47;17.22;78.24
68251;DHT22;55066;51.560;4.642;2022-09-20T13:23:18;17.45;75.65
68251;DHT22;55066;51.560;4.642;2022-09-20T13:25:44;17.76;72.88
68251;DHT22;55066;51.560;4.642;2022-09-20T13:28:20;18.89;72.67
68251;DHT22;55066;51.560;4.642;2022-09-20T13:31:21;18.49;70.97
68251;DHT22;55066;51.560;4.642;2022-09-20T13:33:47;18.13;74.28
68251;DHT22;55066;51.560;4.642;2022-09-20T13:36:13;17.97;73.50
68251;DHT22;55066;51.560;4.642;2022-09-20T13:38:39;17.84;72.73
68251;DHT22;55066;51.560;4.642;2022-09-20T13:41:07;17.65;74.63
68251;DHT22;55066;51.560;4.642;2022-09-20T13:43:41;17.59;73.81
68251;DHT22;55066;51.560;4.642;2022-09-20T13:46:14;17.45;75.93
68251;DHT22;55066;51.560;4.642;2022-09-20T13:48:46;17.80;76.78
68251;DHT22;55066;51.560;4.642;2022-09-20T13:51:23;17.49;75.36
68251;DHT22;55066;51.560;4.642;2022-09-20T13:53:49;17.50;76.85
68251;DHT22;55066;51.560;4.642;2022-09-20T13:56:26;17.34;76.20
68251;DHT22;55066;51.560;4.642;2022-09-20T13:58:53;17.12;75.73
68251;DHT22;55066;51.560;4.642;2022-09-20T14:01:30;17.21;76.35
68251;DHT22;55066;51.560;4.642;2022-09-20T14:04:07;17.07;75.28
68251;DHT22;55066;51.560;4.642;2022-09-20T14:06:33;17.39;74.58
68251;DHT22;55066;51.560;4.642;2022-09-20T14:09:02;17.50;74.76
68251;DHT22;55066;51.560;4.642;2022-09-20T14:11:29;18.34;75.93
68251;DHT22;55066;51.560;4.642;2022-09-20T14:13:57;21.14;66.25
68251;DHT22;55066;51.560;4.642;2022-09-20T14:16:28;21.71;64.26
68251;DHT22;55066;51.560;4.642;2022-09-20T14:18:56;22.39;62.13
68251;DHT22;55066;51.560;4.642;2022-09-20T14:21:24;23.71;59.85
68251;DHT22;55066;51.560;4.642;2022-09-20T14:23:55;21.30;62.10
68251;DHT22;55066;51.560;4.642;2022-09-20T14:26:36;19.87;68.84
68251;DHT22;55066;51.560;4.642;2022-09-20T14:32:04;18.90;75.02
68251;DHT22;55066;51.560;4.642;2022-09-20T14:34:34;18.76;76.82
68251;DHT22;55066;51.560;4.642;2022-09-20T14:37:05;17.62;72.24
68251;DHT22;55066;51.560;4.642;2022-09-20T14:39:31;17.18;73.91
68251;DHT22;55066;51.560;4.642;2022-09-20T14:41:57;17.21;74.31
68251;DHT22;55066;51.560;4.642;2022-09-20T14:44:32;17.00;78.53
68251;DHT22;55066;51.560;4.642;2022-09-20T14:46:59;17.14;74.30
68251;DHT22;55066;51.560;4.642;2022-09-20T14:49:39;17.34;73.98
68251;DHT22;55066;51.560;4.642;2022-09-20T14:55:02;17.36;77.58
68251;DHT22;55066;51.560;4.642;2022-09-20T14:57:35;17.31;79.52
68251;DHT22;55066;51.560;4.642;2022-09-20T15:00:04;17.83;73.80
68251;DHT22;55066;51.560;4.642;2022-09-20T15:02:33;18.39;73.86
68251;DHT22;55066;51.560;4.642;2022-09-20T15:05:00;18.21;74.60
68251;DHT22;55066;51.560;4.642;2022-09-20T15:07:26;19.14;69.83
68251;DHT22;55066;51.560;4.642;2022-09-20T15:09:51;19.31;68.53
68251;DHT22;55066;51.560;4.642;2022-09-20T15:12:18;19.57;71.04
68251;DHT22;55066;51.560;4.642;2022-09-20T15:14:45;19.25;68.40
68251;DHT22;55066;51.560;4.642;2022-09-20T15:17:16;19.68;67.98
68251;DHT22;55066;51.560;4.642;2022-09-20T15:19:43;19.50;65.37
68251;DHT22;55066;51.560;4.642;2022-09-20T15:22:09;19.54;69.94
68251;DHT22;55066;51.560;4.642;2022-09-20T15:24:34;18.79;66.80
68251;DHT22;55066;51.560;4.642;2022-09-20T15:27:00;19.23;70.60
68251;DHT22;55066;51.560;4.642;2022-09-20T15:29:25;19.23;67.80
68251;DHT22;55066;51.560;4.642;2022-09-20T15:31:51;19.28;66.13
68251;DHT22;55066;51.560;4.642;2022-09-20T15:34:17;18.77;65.37
68251;DHT22;55066;51.560;4.642;2022-09-20T15:36:43;19.11;74.04
68251;DHT22;55066;51.560;4.642;2022-09-20T15:39:09;19.23;65.53
68251;DHT22;55066;51.560;4.642;2022-09-20T15:41:34;19.34;66.63
68251;DHT22;55066;51.560;4.642;2022-09-20T15:44:01;19.35;70.07
68251;DHT22;55066;51.560;4.642;2022-09-20T15:46:28;19.86;73.40
68251;DHT22;55066;51.560;4.642;2022-09-20T15:48:54;20.31;71.78
68251;DHT22;55066;51.560;4.642;2022-09-20T15:51:20;20.61;70.54
68251;DHT22;55066;51.560;4.642;2022-09-20T15:53:53;19.96;64.85
68251;DHT22;55066;51.560;4.642;2022-09-20T15:56:24;19.80;68.69
68251;DHT22;55066;51.560;4.642;2022-09-20T15:58:53;19.54;63.68
68251;DHT22;55066;51.560;4.642;2022-09-20T16:01:25;19.27;62.66
68251;DHT22;55066;51.560;4.642;2022-09-20T16:03:51;19.61;68.58
68251;DHT22;55066;51.560;4.642;2022-09-20T16:06:18;19.69;65.23
68251;DHT22;55066;51.560;4.642;2022-09-20T16:08:43;19.27;72.94
68251;DHT22;55066;51.560;4.642;2022-09-20T16:11:12;18.65;76.02
68251;DHT22;55066;51.560;4.642;2022-09-20T16:13:37;18.65;76.48
68251;DHT22;55066;51.560;4.642;2022-09-20T16:16:04;18.28;77.23
68251;DHT22;55066;51.560;4.642;2022-09-20T16:18:30;18.27;76.15
68251;DHT22;55066;51.560;4.642;2022-09-20T16:21:17;18.21;75.25
68251;DHT22;55066;51.560;4.642;2022-09-20T16:24:01;18.00;76.54
68251;DHT22;55066;51.560;4.642;2022-09-20T16:26:27;17.98;77.50
68251;DHT22;55066;51.560;4.642;2022-09-20T16:28:53;17.77;76.31
68251;DHT22;55066;51.560;4.642;2022-09-20T16:31:43;17.53;74.62
68251;DHT22;55066;51.560;4.642;2022-09-20T16:36:52;17.83;76.45
68251;DHT22;55066;51.560;4.642;2022-09-20T16:39:25;17.69;76.41
68251;DHT22;55066;51.560;4.642;2022-09-20T16:41:53;17.56;77.06
68251;DHT22;55066;51.560;4.642;2022-09-20T16:44:18;17.40;75.73
68251;DHT22;55066;51.560;4.642;2022-09-20T16:46:43;17.15;78.77
68251;DHT22;55066;51.560;4.642;2022-09-20T16:49:09;17.03;77.39
68251;DHT22;55066;51.560;4.642;2022-09-20T16:51:38;17.24;78.37
68251;DHT22;55066;51.560;4.642;2022-09-20T16:54:06;17.10;78.25
68251;DHT22;55066;51.560;4.642;2022-09-20T16:56:33;17.04;78.30
68251;DHT22;55066;51.560;4.642;2022-09-20T16:59:00;16.62;79.03
68251;DHT22;55066;51.560;4.642;2022-09-20T17:01:26;16.81;78.32
68251;DHT22;55066;51.560;4.642;2022-09-20T17:03:51;16.60;78.00
68251;DHT22;55066;51.560;4.642;2022-09-20T17:06:17;16.35;79.33
68251;DHT22;55066;51.560;4.642;2022-09-20T17:08:44;16.28;78.33
68251;DHT22;55066;51.560;4.642;2022-09-20T17:11:19;16.19;74.19
68251;DHT22;55066;51.560;4.642;2022-09-20T17:13:48;16.29;79.16
68251;DHT22;55066;51.560;4.642;2022-09-20T17:16:20;16.14;75.90
68251;DHT22;55066;51.560;4.642;2022-09-20T17:18:53;16.09;79.13
68251;DHT22;55066;51.560;4.642;2022-09-20T17:21:20;15.76;80.00
68251;DHT22;55066;51.560;4.642;2022-09-20T17:23:48;15.57;79.71
68251;DHT22;55066;51.560;4.642;2022-09-20T17:26:19;15.56;80.11
68251;DHT22;55066;51.560;4.642;2022-09-20T17:28:48;15.52;80.15
68251;DHT22;55066;51.560;4.642;2022-09-20T17:31:23;15.54;80.04
68251;DHT22;55066;51.560;4.642;2022-09-20T17:33:52;15.56;79.80
68251;DHT22;55066;51.560;4.642;2022-09-20T17:36:19;15.38;80.26
68251;DHT22;55066;51.560;4.642;2022-09-20T17:38:53;15.33;80.38
68251;DHT22;55066;51.560;4.642;2022-09-20T17:41:19;15.21;79.89
68251;DHT22;55066;51.560;4.642;2022-09-20T17:43:45;14.92;80.95
68251;DHT22;55066;51.560;4.642;2022-09-20T17:46:13;14.84;81.49
68251;DHT22;55066;51.560;4.642;2022-09-20T17:48:40;14.78;81.71
68251;DHT22;55066;51.560;4.642;2022-09-20T17:51:06;14.76;81.69
68251;DHT22;55066;51.560;4.642;2022-09-20T17:53:34;14.63;81.00
68251;DHT22;55066;51.560;4.642;2022-09-20T17:56:00;14.55;81.96
68251;DHT22;55066;51.560;4.642;2022-09-20T17:58:26;14.44;81.97
68251;DHT22;55066;51.560;4.642;2022-09-20T18:00:53;14.40;82.04
68251;DHT22;55066;51.560;4.642;2022-09-20T18:03:23;14.34;82.08
68251;DHT22;55066;51.560;4.642;2022-09-20T18:05:49;14.18;82.22
68251;DHT22;55066;51.560;4.642;2022-09-20T18:08:15;14.08;82.66
68251;DHT22;55066;51.560;4.642;2022-09-20T18:10:41;14.06;82.54
68251;DHT22;55066;51.560;4.642;2022-09-20T18:13:17;13.95;82.91
68251;DHT22;55066;51.560;4.642;2022-09-20T18:15:42;14.00;82.49
68251;DHT22;55066;51.560;4.642;2022-09-20T18:18:09;13.84;82.97
68251;DHT22;55066;51.560;4.642;2022-09-20T18:20:35;13.75;82.89
68251;DHT22;55066;51.560;4.642;2022-09-20T18:23:00;13.73;82.92
68251;DHT22;55066;51.560;4.642;2022-09-20T18:25:26;13.61;83.21
68251;DHT22;55066;51.560;4.642;2022-09-20T18:27:51;13.64;82.99
68251;DHT22;55066;51.560;4.642;2022-09-20T18:30:16;13.53;83.07
68251;DHT22;55066;51.560;4.642;2022-09-20T18:32:42;13.50;83.23
68251;DHT22;55066;51.560;4.642;2022-09-20T18:35:08;13.56;83.66
68251;DHT22;55066;51.560;4.642;2022-09-20T18:37:34;13.43;83.30
68251;DHT22;55066;51.560;4.642;2022-09-20T18:40:02;13.44;83.00
68251;DHT22;55066;51.560;4.642;2022-09-20T18:42:27;13.43;82.90
68251;DHT22;55066;51.560;4.642;2022-09-20T18:44:55;13.43;82.76
68251;DHT22;55066;51.560;4.642;2022-09-20T18:47:20;13.30;82.84
68251;DHT22;55066;51.560;4.642;2022-09-20T18:49:46;13.32;82.99
68251;DHT22;55066;51.560;4.642;2022-09-20T18:52:11;13.29;82.85
68251;DHT22;55066;51.560;4.642;2022-09-20T18:54:37;13.29;82.81
68251;DHT22;55066;51.560;4.642;2022-09-20T18:57:05;13.23;82.87
68251;DHT22;55066;51.560;4.642;2022-09-20T18:59:30;13.19;82.87
68251;DHT22;55066;51.560;4.642;2022-09-20T19:05:11;13.00;83.27
68251;DHT22;55066;51.560;4.642;2022-09-20T19:07:57;12.95;83.28
68251;DHT22;55066;51.560;4.642;2022-09-20T19:16:07;12.75;83.66
68251;DHT22;55066;51.560;4.642;2022-09-20T19:27:49;12.55;83.80
68251;DHT22;55066;51.560;4.642;2022-09-20T19:30:16;12.54;83.80
68251;DHT22;55066;51.560;4.642;2022-09-20T19:32:42;12.50;83.72
68251;DHT22;55066;51.560;4.642;2022-09-20T19:35:24;12.44;83.70
68251;DHT22;55066;51.560;4.642;2022-09-20T19:38:10;12.44;83.73
68251;DHT22;55066;51.560;4.642;2022-09-20T19:40:55;12.40;83.76
68251;DHT22;55066;51.560;4.642;2022-09-20T19:46:44;12.13;84.45
68251;DHT22;55066;51.560;4.642;2022-09-20T19:51:58;11.93;84.77
68251;DHT22;55066;51.560;4.642;2022-09-20T19:54:24;11.92;84.84
68251;DHT22;55066;51.560;4.642;2022-09-20T19:56:55;11.82;84.85
68251;DHT22;55066;51.560;4.642;2022-09-20T19:59:23;11.81;84.61
68251;DHT22;55066;51.560;4.642;2022-09-20T20:01:49;11.77;84.93
68251;DHT22;55066;51.560;4.642;2022-09-20T20:04:18;11.74;84.93
68251;DHT22;55066;51.560;4.642;2022-09-20T20:07:07;11.69;84.96
68251;DHT22;55066;51.560;4.642;2022-09-20T20:09:45;11.67;84.88
68251;DHT22;55066;51.560;4.642;2022-09-20T20:25:46;11.41;84.97
68251;DHT22;55066;51.560;4.642;2022-09-20T20:28:14;11.38;85.02